Time;durP1;ratioP1;P1;durP2;ratioP2;P2;SDS_P1;SDS_P2;PMS_P1;PMS_P2;Temp;Humidity;BMP_temperature;BMP_pressure;BME280_temperature;BME280_humidity;BME280_pressure;Samples;Min_cycle;Max_cycle;Signal;HPM_P1;HPM_P2
2021/06/06 00:00:54;;;;;;;;;14.50;12.75;;;;;16.53;68.52;102274.78;5033228;28;46161;-75
2021/06/06 00:03:33;;;;;;;;;11.75;11.25;;;;;16.57;68.55;102283.50;5034377;28;45457;-75
2021/06/06 00:06:13;;;;;;;;;12.75;12.00;;;;;16.53;68.77;102277.44;5019736;28;45761;-75
2021/06/06 00:08:39;;;;;;;;;13.25;11.75;;;;;16.51;68.60;102278.47;5032766;28;47113;-75
2021/06/06 00:11:15;;;;;;;;;12.00;10.25;;;;;16.49;68.65;102277.63;5034508;28;45792;-75
2021/06/06 00:13:42;;;;;;;;;10.50;10.00;;;;;16.44;68.98;102273.41;5033488;28;45598;-75
2021/06/06 00:16:15;;;;;;;;;9.00;8.00;;;;;16.42;68.34;102277.91;5033509;28;45414;-75
2021/06/06 00:18:41;;;;;;;;;10.00;10.00;;;;;16.39;68.35;102264.78;5033272;28;46260;-75
2021/06/06 00:21:07;;;;;;;;;12.00;10.50;;;;;16.37;68.57;102277.25;5033464;28;45847;-75
2021/06/06 00:23:33;;;;;;;;;11.00;9.25;;;;;16.35;68.46;102287.06;5030280;28;45573;-74
2021/06/06 00:26:00;;;;;;;;;10.00;8.50;;;;;16.33;68.83;102283.59;5034331;28;45209;-75
2021/06/06 00:28:26;;;;;;;;;11.25;9.75;;;;;16.31;68.69;102290.78;5032966;28;47206;-74
2021/06/06 00:30:51;;;;;;;;;9.25;9.25;;;;;16.29;68.84;102284.69;5033566;28;45433;-75
2021/06/06 00:33:17;;;;;;;;;13.25;11.00;;;;;16.26;68.53;102281.28;5037429;28;45413;-75
2021/06/06 00:35:42;;;;;;;;;10.00;10.00;;;;;16.25;68.83;102284.88;5037026;28;45476;-75
2021/06/06 00:38:07;;;;;;;;;16.25;15.00;;;;;16.21;68.95;102275.31;5037333;28;45303;-75
2021/06/06 00:40:37;;;;;;;;;12.25;10.25;;;;;16.19;68.89;102280.69;5036439;28;45314;-75
2021/06/06 00:43:06;;;;;;;;;12.00;11.00;;;;;16.16;68.90;102275.50;5036716;28;46593;-75
2021/06/06 00:45:33;;;;;;;;;10.50;9.75;;;;;16.12;68.53;102282.72;5031241;28;45541;-74
2021/06/06 00:47:58;;;;;;;;;12.50;10.75;;;;;16.08;69.02;102274.97;5035454;28;45468;-75
2021/06/06 00:50:32;;;;;;;;;11.00;11.00;;;;;16.05;68.73;102273.28;5050234;28;45375;-74
2021/06/06 00:53:03;;;;;;;;;10.25;9.25;;;;;16.02;68.75;102264.59;5037798;28;45441;-75
2021/06/06 00:55:28;;;;;;;;;11.25;9.50;;;;;16.00;69.05;102274.41;5036594;28;45464;-75
2021/06/06 00:57:55;;;;;;;;;9.25;8.75;;;;;15.95;68.82;102271.94;5036514;28;46299;-75
2021/06/06 01:00:32;;;;;;;;;9.00;9.00;;;;;15.92;68.76;102264.09;5036666;28;45481;-75
2021/06/06 01:02:58;;;;;;;;;10.25;9.00;;;;;15.89;68.81;102269.56;5031265;28;45478;-75
2021/06/06 01:05:33;;;;;;;;;9.00;8.50;;;;;15.84;68.88;102261.78;5036666;28;45461;-74
2021/06/06 01:08:04;;;;;;;;;9.75;9.25;;;;;15.83;69.17;102260.06;5033804;28;46508;-75
2021/06/06 01:10:31;;;;;;;;;13.50;10.50;;;;;15.83;68.97;102269.81;5036056;28;45841;-75
2021/06/06 01:13:04;;;;;;;;;11.00;10.25;;;;;15.81;69.14;102266.34;5036810;28;45429;-74
2021/06/06 01:15:34;;;;;;;;;8.00;8.00;;;;;15.75;68.85;102251.53;5036441;28;45446;-75
2021/06/06 01:18:25;;;;;;;;;14.25;9.50;;;;;15.77;69.03;102262.97;5035780;28;46337;-76
2021/06/06 01:20:53;;;;;;;;;5.75;5.50;;;;;15.74;69.47;102263.06;5035801;28;45551;-75
2021/06/06 01:23:34;;;;;;;;;11.75;10.50;;;;;15.72;69.39;102267.59;5036924;28;45564;-75
2021/06/06 01:26:10;;;;;;;;;10.00;10.00;;;;;15.69;69.29;102259.75;5036876;28;45523;-75
2021/06/06 01:28:54;;;;;;;;;10.25;10.25;;;;;15.62;69.30;102252.94;5036020;28;46959;-75
2021/06/06 01:31:22;;;;;;;;;15.25;12.50;;;;;15.66;69.50;102259.88;5035898;28;47233;-75
2021/06/06 01:33:59;;;;;;;;;16.75;15.75;;;;;15.62;69.67;102258.25;5031620;28;45487;-75
2021/06/06 01:36:32;;;;;;;;;16.00;12.50;;;;;15.62;69.67;102258.25;5025207;28;47778;-75
2021/06/06 01:39:04;;;;;;;;;20.00;16.00;;;;;15.60;69.69;102254.78;5036114;28;46312;-76
2021/06/06 01:41:35;;;;;;;;;21.00;17.25;;;;;15.55;69.65;102248.78;5036032;28;46068;-75
2021/06/06 01:44:04;;;;;;;;;24.75;21.00;;;;;15.51;69.82;102249.88;5034013;28;45500;-75
2021/06/06 01:46:37;;;;;;;;;22.00;19.50;;;;;15.51;69.95;102244.56;5035992;28;45494;-75
2021/06/06 01:49:05;;;;;;;;;28.75;22.25;;;;;15.47;70.03;102253.56;5035015;28;46151;-75
2021/06/06 01:51:35;;;;;;;;;21.00;19.00;;;;;15.46;69.91;102249.19;5051548;28;46359;-75
2021/06/06 01:54:02;;;;;;;;;26.75;18.75;;;;;15.44;69.65;102251.00;5035639;28;45509;-75
2021/06/06 01:56:34;;;;;;;;;19.00;17.00;;;;;15.40;69.60;102248.50;5035920;28;45510;-75
2021/06/06 01:59:03;;;;;;;;;19.25;16.00;;;;;15.38;69.18;102241.50;5034421;28;46281;-75
2021/06/06 02:01:29;;;;;;;;;12.75;10.00;;;;;15.34;69.33;102246.06;5032732;28;45737;-73
2021/06/06 02:03:56;;;;;;;;;15.25;14.00;;;;;15.28;69.35;102237.50;5032697;28;45583;-75
2021/06/06 02:06:52;;;;;;;;;10.00;9.00;;;;;15.27;68.98;102241.94;5035441;28;45587;-75
2021/06/06 02:09:23;;;;;;;;;12.25;11.50;;;;;15.27;69.08;102236.63;5033311;28;46225;-75
2021/06/06 02:11:59;;;;;;;;;16.25;12.50;;;;;15.24;69.05;102241.19;5034249;28;45795;-74
2021/06/06 02:14:28;;;;;;;;;15.25;12.00;;;;;15.19;69.31;102240.50;5032893;28;45341;-75
2021/06/06 02:16:58;;;;;;;;;18.00;10.50;;;;;15.14;69.10;102235.41;5035685;28;45520;-75
2021/06/06 02:19:26;;;;;;;;;13.50;13.50;;;;;15.11;69.50;102235.50;5035379;28;46444;-73
2021/06/06 02:21:58;;;;;;;;;12.50;12.50;;;;;15.07;69.74;102229.44;5035785;28;45630;-75
2021/06/06 02:24:24;;;;;;;;;16.00;13.50;;;;;15.06;69.77;102225.06;5035089;28;45464;-75
2021/06/06 02:27:04;;;;;;;;;15.00;13.00;;;;;15.03;69.65;102224.31;5035449;28;45371;-75
2021/06/06 02:29:39;;;;;;;;;18.75;13.00;;;;;15.02;69.47;102219.94;5035675;28;48220;-75
2021/06/06 02:32:25;;;;;;;;;12.25;12.25;;;;;14.99;69.54;102217.44;5028176;28;45346;-74
2021/06/06 02:35:28;;;;;;;;;12.25;10.00;;;;;14.95;70.09;102221.97;5034926;28;45400;-75
2021/06/06 02:38:17;;;;;;;;;15.00;12.00;;;;;14.92;70.13;102214.13;5034932;28;45644;-75
2021/06/06 02:40:50;;;;;;;;;17.50;13.75;;;;;14.91;70.26;102219.50;5034724;28;47250;-75
2021/06/06 02:43:23;;;;;;;;;14.75;13.00;;;;;14.90;70.14;102215.13;5034647;28;47797;-75
2021/06/06 02:45:51;;;;;;;;;11.25;10.25;;;;;14.88;70.29;102213.41;5034442;28;45464;-76
2021/06/06 02:48:24;;;;;;;;;14.25;11.75;;;;;14.86;70.42;102204.66;5035017;28;45501;-75
2021/06/06 02:50:50;;;;;;;;;17.25;14.50;;;;;14.82;70.47;102205.69;5034859;28;46405;-74
2021/06/06 02:53:21;;;;;;;;;9.50;8.50;;;;;14.80;70.37;102202.22;5035705;28;45307;-75
2021/06/06 02:55:51;;;;;;;;;8.75;7.75;;;;;14.75;70.35;102198.91;5033790;28;45602;-75
2021/06/06 02:58:22;;;;;;;;;14.25;12.00;;;;;14.75;70.41;102203.31;5034695;28;45470;-75
2021/06/06 03:00:57;;;;;;;;;13.50;11.00;;;;;14.72;70.29;102196.38;5033973;28;46203;-75
2021/06/06 03:03:27;;;;;;;;;10.75;10.75;;;;;14.72;70.88;102200.78;5048582;28;45809;-75
2021/06/06 03:05:56;;;;;;;;;13.50;8.75;;;;;14.69;70.71;102196.47;5034343;28;49624;-75
2021/06/06 03:08:23;;;;;;;;;11.50;11.50;;;;;14.66;70.84;102198.38;5035250;28;45414;-75
2021/06/06 03:10:49;;;;;;;;;11.00;11.00;;;;;14.64;71.00;102197.56;5035244;28;46439;-75
2021/06/06 03:13:34;;;;;;;;;11.75;11.00;;;;;14.57;71.15;102184.56;5034460;28;45802;-75
2021/06/06 03:16:01;;;;;;;;;11.25;10.00;;;;;14.56;71.01;102187.25;5033845;28;45500;-75
2021/06/06 03:18:30;;;;;;;;;9.50;9.00;;;;;14.52;71.17;102191.81;5034407;28;45495;-75
2021/06/06 03:21:04;;;;;;;;;9.50;7.50;;;;;14.48;71.31;102181.41;5034587;28;45409;-74
2021/06/06 03:23:31;;;;;;;;;12.25;8.50;;;;;14.45;70.85;102184.09;5034535;28;45412;-75
2021/06/06 03:26:02;;;;;;;;;6.75;6.75;;;;;14.42;71.49;102192.16;5035112;28;45524;-76
2021/06/06 03:28:30;;;;;;;;;9.00;9.00;;;;;14.38;70.92;102188.75;5034168;28;46007;-75
2021/06/06 03:31:06;;;;;;;;;8.50;7.50;;;;;14.38;70.56;102186.13;5033927;28;46205;-75
2021/06/06 03:33:44;;;;;;;;;7.50;6.00;;;;;14.37;70.49;102192.31;5033544;28;47513;-75
2021/06/06 03:36:11;;;;;;;;;6.75;6.75;;;;;14.36;70.06;102182.66;5034856;28;45519;-75
2021/06/06 03:38:36;;;;;;;;;8.50;6.00;;;;;14.36;70.23;102187.97;5034197;28;45398;-76
2021/06/06 03:41:01;;;;;;;;;8.00;7.25;;;;;14.35;70.44;102189.75;5034909;28;46821;-75
2021/06/06 03:43:27;;;;;;;;;6.50;6.00;;;;;14.30;70.20;102182.84;5034116;28;45304;-74
2021/06/06 03:45:52;;;;;;;;;6.25;6.25;;;;;14.33;70.51;102183.63;5033964;28;45543;-75
2021/06/06 03:48:19;;;;;;;;;6.75;6.00;;;;;14.32;70.66;102183.69;5034199;28;45585;-75
2021/06/06 03:50:46;;;;;;;;;5.50;5.50;;;;;14.26;70.53;102186.56;5034197;28;46225;-75
2021/06/06 03:53:11;;;;;;;;;6.50;6.00;;;;;14.30;70.76;102183.75;5034647;28;45665;-74
2021/06/06 03:55:37;;;;;;;;;6.50;5.00;;;;;14.30;70.68;102182.84;5033660;28;45614;-75
2021/06/06 03:58:03;;;;;;;;;7.00;6.75;;;;;14.25;71.18;102177.75;5033790;28;45531;-75
2021/06/06 04:00:36;;;;;;;;;6.75;5.00;;;;;14.27;71.04;102175.91;5033883;28;46204;-75
2021/06/06 04:03:02;;;;;;;;;7.75;7.75;;;;;14.26;71.08;102187.41;5026196;28;45320;-75
2021/06/06 04:05:28;;;;;;;;;8.00;6.00;;;;;14.24;71.10;102183.94;5031287;28;45391;-75
2021/06/06 04:07:54;;;;;;;;;6.75;5.75;;;;;14.23;71.17;102186.66;5034188;28;45771;-75
2021/06/06 04:10:20;;;;;;;;;9.50;7.50;;;;;14.21;71.11;102181.44;5033685;28;46198;-74
2021/06/06 04:12:46;;;;;;;;;9.50;8.75;;;;;14.21;71.21;102183.22;5033534;28;45361;-75
2021/06/06 04:15:12;;;;;;;;;7.50;7.50;;;;;14.21;71.14;102178.78;5033571;28;45453;-75
2021/06/06 04:17:37;;;;;;;;;8.50;6.75;;;;;14.21;71.12;102176.13;5033790;28;45401;-75
2021/06/06 04:20:04;;;;;;;;;12.00;8.00;;;;;14.20;71.12;102168.25;5034101;28;47143;-76
2021/06/06 04:22:30;;;;;;;;;6.00;6.00;;;;;14.23;70.98;102176.94;5033319;28;45736;-75
2021/06/06 04:24:56;;;;;;;;;7.75;7.00;;;;;14.26;71.04;102183.91;5034043;28;45370;-75
2021/06/06 04:27:21;;;;;;;;;8.75;6.25;;;;;14.27;70.94;102178.56;5033194;28;45587;-75
2021/06/06 04:29:46;;;;;;;;;7.25;6.00;;;;;14.28;71.07;102192.66;5033654;28;45315;-75
2021/06/06 04:32:15;;;;;;;;;8.75;6.00;;;;;14.30;70.96;102193.44;5029315;28;45512;-74
2021/06/06 04:34:42;;;;;;;;;10.50;9.25;;;;;14.32;70.91;102195.13;5026272;28;45657;-75
2021/06/06 04:37:09;;;;;;;;;8.75;6.25;;;;;14.35;70.82;102189.75;5027628;28;45449;-75
2021/06/06 04:39:34;;;;;;;;;9.75;8.25;;;;;14.39;70.71;102193.13;5033143;28;46243;-75
2021/06/06 04:41:59;;;;;;;;;7.00;6.50;;;;;14.43;70.56;102188.59;5033196;28;45290;-75
2021/06/06 04:44:25;;;;;;;;;7.25;6.25;;;;;14.48;71.03;102186.69;5033867;28;45403;-75
2021/06/06 04:46:50;;;;;;;;;6.25;6.25;;;;;14.53;70.71;102185.59;5033522;28;45414;-75
2021/06/06 04:49:16;;;;;;;;;7.00;7.00;;;;;14.59;71.24;102195.09;5033167;28;45942;-74
2021/06/06 04:51:42;;;;;;;;;7.00;6.25;;;;;14.63;70.68;102187.91;5032923;28;45512;-75
2021/06/06 04:54:07;;;;;;;;;8.50;6.75;;;;;14.69;71.09;102193.84;5033076;28;45355;-74
2021/06/06 04:56:33;;;;;;;;;7.00;6.75;;;;;14.76;70.42;102192.66;5033632;28;45364;-73
2021/06/06 04:58:58;;;;;;;;;5.00;5.00;;;;;14.84;69.92;102190.63;5033741;28;46289;-74
2021/06/06 05:01:24;;;;;;;;;5.00;5.00;;;;;14.92;69.30;102186.81;5028047;28;45705;-75
2021/06/06 05:03:50;;;;;;;;;5.00;5.00;;;;;15.09;69.08;102187.03;5032679;28;45315;-75
2021/06/06 05:06:15;;;;;;;;;7.00;5.75;;;;;15.39;68.48;102193.75;5033391;28;45590;-75
2021/06/06 05:08:41;;;;;;;;;6.75;5.00;;;;;15.49;67.65;102178.38;5033101;28;46583;-75
2021/06/06 05:11:07;;;;;;;;;6.00;6.00;;;;;15.51;67.23;102180.97;5018250;28;45322;-75
2021/06/06 05:13:33;;;;;;;;;7.25;4.00;;;;;15.55;66.96;102177.25;5031852;28;45464;-75
2021/06/06 05:15:59;;;;;;;;;4.50;4.50;;;;;15.58;66.76;102185.94;5032902;28;45460;-75
2021/06/06 05:18:25;;;;;;;;;4.00;3.00;;;;;15.62;66.65;102179.59;5034103;28;47195;-75
2021/06/06 05:20:52;;;;;;;;;4.75;4.75;;;;;15.68;66.23;102182.97;5036152;28;45296;-74
2021/06/06 05:23:20;;;;;;;;;5.75;5.75;;;;;15.76;66.20;102179.03;5036905;28;45397;-75
2021/06/06 05:25:46;;;;;;;;;4.25;4.25;;;;;15.90;65.46;102174.03;5036126;28;45447;-75
2021/06/06 05:28:16;;;;;;;;;7.75;4.00;;;;;15.97;66.05;102176.41;5035944;28;45928;-75
2021/06/06 05:30:43;;;;;;;;;3.50;3.50;;;;;16.03;65.26;102178.84;5036286;28;45334;-74
2021/06/06 05:33:09;;;;;;;;;4.75;4.00;;;;;16.09;65.18;102178.56;5035488;28;45853;-75
2021/06/06 05:35:36;;;;;;;;;6.00;4.00;;;;;16.29;64.79;102178.56;5036259;28;45378;-74
2021/06/06 05:38:03;;;;;;;;;6.75;4.50;;;;;16.53;64.35;102175.75;5036456;28;47019;-75
2021/06/06 05:40:31;;;;;;;;;4.25;4.00;;;;;16.66;63.62;102179.56;5028425;28;45339;-75
2021/06/06 05:42:57;;;;;;;;;3.50;3.00;;;;;16.77;63.85;102177.31;5035726;28;45840;-75
2021/06/06 05:45:23;;;;;;;;;4.25;4.00;;;;;17.36;63.94;102170.09;5036087;28;45437;-75
2021/06/06 05:47:50;;;;;;;;;5.00;5.00;;;;;19.22;62.30;102180.81;5035695;28;46952;-75
2021/06/06 05:50:22;;;;;;;;;4.25;4.00;;;;;21.32;59.26;102177.00;5033203;28;45363;-75
2021/06/06 05:52:48;;;;;;;;;3.00;3.00;;;;;23.20;56.25;102171.13;5036023;28;45807;-75
2021/06/06 05:55:14;;;;;;;;;3.00;3.00;;;;;24.92;53.68;102176.59;5035597;28;46113;-75
2021/06/06 05:57:39;;;;;;;;;3.75;3.75;;;;;26.38;51.02;102175.19;5035624;28;45930;-75
2021/06/06 06:00:08;;;;;;;;;2.00;2.00;;;;;26.74;47.61;102171.97;5036125;28;45347;-76
2021/06/06 06:02:34;;;;;;;;;2.75;2.75;;;;;26.28;46.54;102177.81;5034330;28;45948;-75
2021/06/06 06:04:59;;;;;;;;;5.50;3.00;;;;;25.89;47.27;102176.69;5036253;28;45744;-75
2021/06/06 06:07:25;;;;;;;;;3.00;3.00;;;;;25.50;46.55;102182.59;5035731;28;45316;-74
2021/06/06 06:09:50;;;;;;;;;1.00;1.00;;;;;24.86;46.64;102187.84;5035372;28;45598;-75
2021/06/06 06:12:15;;;;;;;;;4.75;3.00;;;;;24.29;47.51;102178.03;5035422;28;45515;-75
2021/06/06 06:14:41;;;;;;;;;2.00;2.00;;;;;24.20;47.59;102190.34;5035492;28;45586;-75
2021/06/06 06:17:06;;;;;;;;;3.00;2.00;;;;;24.05;47.05;102191.53;5035883;28;46037;-75
2021/06/06 06:19:31;;;;;;;;;5.25;2.25;;;;;23.58;47.04;102190.59;5035701;28;45310;-75
2021/06/06 06:21:57;;;;;;;;;2.00;2.00;;;;;23.10;47.44;102192.41;5035538;28;45742;-75
2021/06/06 06:24:22;;;;;;;;;5.75;2.00;;;;;22.71;47.51;102193.41;5035130;28;45596;-75
2021/06/06 06:26:47;;;;;;;;;3.25;2.50;;;;;22.48;47.86;102187.00;5035550;28;46264;-75
2021/06/06 06:29:13;;;;;;;;;3.00;3.00;;;;;22.30;48.53;102178.44;5035527;28;45460;-75
2021/06/06 06:31:39;;;;;;;;;2.75;1.25;;;;;22.14;47.95;102176.81;5034225;28;45565;-75
2021/06/06 06:34:05;;;;;;;;;2.50;1.75;;;;;22.03;47.60;102187.38;5033180;28;45482;-75
2021/06/06 06:36:31;;;;;;;;;2.00;2.00;;;;;21.83;47.95;102194.09;5035034;28;47301;-75
2021/06/06 06:38:57;;;;;;;;;3.00;2.50;;;;;21.59;47.89;102199.25;5034314;28;46229;-76
2021/06/06 06:41:26;;;;;;;;;4.75;3.00;;;;;21.41;48.31;102197.78;5035194;28;45416;-74
2021/06/06 06:43:52;;;;;;;;;3.00;3.00;;;;;21.33;48.79;102208.13;5034718;28;45468;-77
2021/06/06 06:46:18;;;;;;;;;2.50;2.25;;;;;21.22;48.07;102207.94;5034846;28;46191;-77
2021/06/06 06:48:44;;;;;;;;;3.25;2.00;;;;;21.12;48.76;102202.31;5035037;28;45452;-75
2021/06/06 06:51:10;;;;;;;;;3.00;2.00;;;;;21.02;48.38;102204.69;5035189;28;45490;-75
2021/06/06 06:53:36;;;;;;;;;3.50;2.00;;;;;21.06;48.88;102202.69;5035005;28;45381;-74
2021/06/06 06:56:01;;;;;;;;;3.00;2.00;;;;;21.22;48.77;102200.75;5035755;28;46293;-74
2021/06/06 06:58:27;;;;;;;;;2.00;2.00;;;;;21.50;48.29;102198.97;5034819;28;45367;-74
2021/06/06 07:00:54;;;;;;;;;4.00;2.00;;;;;21.85;48.10;102196.66;5033139;28;45265;-75
2021/06/06 07:03:24;;;;;;;;;2.50;2.00;;;;;22.22;47.27;102196.84;5034586;28;45517;-75
2021/06/06 07:05:50;;;;;;;;;3.00;3.00;;;;;22.55;47.04;102205.22;5019651;28;46442;-75
2021/06/06 07:08:25;;;;;;;;;2.25;2.25;;;;;22.72;46.46;102205.84;5030925;28;45371;-75
2021/06/06 07:10:52;;;;;;;;;2.25;2.00;;;;;22.85;45.61;102207.53;5034061;28;45510;-75
2021/06/06 07:13:17;;;;;;;;;3.00;2.00;;;;;;;;5030684;28;45480;-74
2021/06/06 07:15:43;;;;;;;;;2.25;2.25;;;;;22.98;45.70;102201.34;5020150;28;45434;-74
2021/06/06 07:18:13;;;;;;;;;3.00;2.00;;;;;22.84;45.83;102204.97;5035348;28;45482;-74
2021/06/06 07:20:40;;;;;;;;;2.75;2.75;;;;;22.63;45.32;102204.69;5033843;28;45540;-75
2021/06/06 07:23:08;;;;;;;;;2.00;2.00;;;;;22.63;46.25;102197.50;5033563;28;45442;-74
2021/06/06 07:25:35;;;;;;;;;4.75;3.75;;;;;22.78;46.27;102203.59;5030395;28;46127;-75
2021/06/06 07:28:02;;;;;;;;;3.75;2.50;;;;;22.92;44.92;102205.31;5029422;28;45425;-75
2021/06/06 07:30:31;;;;;;;;;3.25;2.00;;;;;23.18;45.26;102206.97;5033823;28;45503;-75
2021/06/06 07:32:58;;;;;;;;;2.00;2.00;;;;;23.53;45.20;102206.19;5022923;28;45405;-75
2021/06/06 07:35:26;;;;;;;;;5.25;2.25;;;;;23.79;44.86;102206.94;5020928;28;45876;-75
2021/06/06 07:37:52;;;;;;;;;2.00;2.00;;;;;24.03;44.15;102206.06;5031923;28;45488;-75
2021/06/06 07:40:19;;;;;;;;;2.00;2.00;;;;;24.17;43.05;102198.66;5026384;28;45556;-75
2021/06/06 07:42:44;;;;;;;;;2.75;2.00;;;;;24.65;43.03;102203.88;5026831;28;45386;-74
2021/06/06 07:45:13;;;;;;;;;3.00;2.25;;;;;26.03;42.38;102200.63;5026615;28;47491;-76
2021/06/06 07:47:41;;;;;;;;;2.50;2.50;;;;;26.53;41.27;102192.75;5023766;28;45407;-74
2021/06/06 07:50:08;;;;;;;;;3.25;2.00;;;;;26.74;40.51;102200.78;5026621;28;45543;-74
2021/06/06 07:52:35;;;;;;;;;1.25;1.25;;;;;27.38;40.24;102196.88;5022895;28;45517;-75
2021/06/06 07:55:04;;;;;;;;;2.50;2.25;;;;;27.92;37.85;102198.16;5024979;28;46924;-75
2021/06/06 07:57:30;;;;;;;;;2.00;1.00;;;;;28.30;37.74;102208.94;5029215;28;45624;-75
2021/06/06 07:59:55;;;;;;;;;1.00;1.00;;;;;28.53;37.28;102203.19;5022625;28;47714;-75
2021/06/06 08:02:20;;;;;;;;;14.75;13.50;;;;;28.66;36.52;102198.31;5025430;28;45355;-76
2021/06/06 08:04:45;;;;;;;;;1.00;1.00;;;;;29.76;36.18;102200.09;5033690;28;46295;-75
2021/06/06 08:07:11;;;;;;;;;2.50;2.50;;;;;31.66;36.68;102198.00;5028162;28;54404;-75
2021/06/06 08:09:36;;;;;;;;;1.00;1.00;;;;;33.91;33.65;102201.22;5033065;28;45278;-74
2021/06/06 08:12:01;;;;;;;;;1.25;1.25;;;;;37.10;33.08;102201.63;5033271;28;45498;-74
2021/06/06 08:14:27;;;;;;;;;1.75;1.75;;;;;39.01;27.85;102198.16;5033670;28;47895;-74
2021/06/06 08:16:53;;;;;;;;;1.25;1.25;;;;;40.57;27.08;102205.59;5033674;28;45498;-76
2021/06/06 08:19:18;;;;;;;;;1.00;0.00;;;;;42.38;26.19;102200.66;5023557;28;45726;-74
2021/06/06 08:21:46;;;;;;;;;0.50;0.50;;;;;42.84;24.33;102205.25;5029292;28;45402;-74
2021/06/06 08:24:12;;;;;;;;;4.00;0.00;;;;;42.28;23.52;102208.72;5032965;28;47083;-74
2021/06/06 08:26:38;;;;;;;;;0.00;0.00;;;;;41.42;23.59;102211.03;5032648;28;45999;-75
2021/06/06 08:29:06;;;;;;;;;0.00;0.00;;;;;40.49;23.09;102214.97;5032813;28;45294;-75
2021/06/06 08:31:34;;;;;;;;;3.00;3.00;;;;;41.15;23.54;102205.91;5033627;28;45426;-75
2021/06/06 08:33:59;;;;;;;;;1.75;0.75;;;;;43.58;22.64;102210.81;5033030;28;47035;-75
2021/06/06 08:36:31;;;;;;;;;1.00;1.00;;;;;46.00;20.63;102201.25;5032872;28;45445;-74
2021/06/06 08:38:58;;;;;;;;;1.00;1.00;;;;;48.16;19.76;102206.97;5019957;28;45568;-74
2021/06/06 08:41:27;;;;;;;;;0.00;0.00;;;;;49.85;17.19;102209.53;5033796;28;45524;-76
2021/06/06 08:44:06;;;;;;;;;1.50;1.00;;;;;51.25;16.68;102211.91;5032970;28;46824;-75
2021/06/06 08:46:35;;;;;;;;;1.25;1.00;;;;;52.51;16.10;102209.78;5033142;28;45353;-76
2021/06/06 08:49:02;;;;;;;;;1.00;1.00;;;;;53.49;15.49;102216.72;5033196;28;45341;-76
2021/06/06 08:51:37;;;;;;;;;1.00;1.00;;;;;54.57;14.15;102221.81;5032123;28;45432;-77
2021/06/06 08:54:22;;;;;;;;;0.00;0.00;;;;;55.66;13.91;102213.09;5029110;28;46245;-77
2021/06/06 08:56:54;;;;;;;;;0.75;0.75;;;;;56.39;13.38;102217.72;5036437;28;45599;-76
2021/06/06 08:59:36;;;;;;;;;0.25;0.25;;;;;57.18;12.12;102225.22;5033756;28;45694;-76
2021/06/06 09:02:13;;;;;;;;;0.00;0.00;;;;;57.94;13.17;102209.69;5035344;28;45416;-74
2021/06/06 09:04:38;;;;;;;;;0.75;0.75;;;;;58.36;10.98;102219.91;5036756;28;45456;-74
2021/06/06 09:07:11;;;;;;;;;1.00;1.00;;;;;59.01;11.33;102210.16;5035898;28;45384;-74
2021/06/06 09:09:41;;;;;;;;;0.00;0.00;;;;;59.65;10.13;102207.41;5036588;28;45565;-73
2021/06/06 09:12:13;;;;;;;;;0.50;0.50;;;;;59.85;10.30;102194.13;5036968;28;45382;-77
2021/06/06 09:14:41;;;;;;;;;1.00;1.00;;;;;60.52;10.54;102200.56;5036522;28;46206;-72
2021/06/06 09:17:10;;;;;;;;;2.00;2.00;;;;;61.22;9.71;102182.47;5034903;28;45684;-78
2021/06/06 09:19:43;;;;;;;;;0.75;0.75;;;;;61.50;8.94;102176.44;5025490;28;45682;-73
2021/06/06 09:22:08;;;;;;;;;1.00;1.00;;;;;61.63;9.36;102174.22;5036592;28;45529;-74
2021/06/06 09:24:43;;;;;;;;;1.00;1.00;;;;;61.41;8.99;102171.03;5036114;28;46062;-74
2021/06/06 09:27:13;;;;;;;;;3.00;1.75;;;;;61.72;8.69;102149.19;5036144;28;45325;-74
2021/06/06 09:29:39;;;;;;;;;1.75;1.25;;;;;62.44;9.07;102159.53;5036497;28;45603;-74
2021/06/06 09:32:15;;;;;;;;;1.50;1.00;;;;;63.33;8.44;102164.13;5036857;28;45343;-74
2021/06/06 09:34:56;;;;;;;;;1.00;1.00;;;;;64.00;7.76;102157.28;5036258;28;46982;-74
2021/06/06 09:37:26;;;;;;;;;2.00;1.00;;;;;64.40;7.78;102160.31;5031826;28;45391;-74
2021/06/06 09:40:05;;;;;;;;;1.75;1.75;;;;;64.56;7.32;102158.75;5029130;28;45437;-74
2021/06/06 09:42:33;;;;;;;;;2.00;2.00;;;;;63.45;7.10;102160.19;5036352;28;45453;-74
2021/06/06 09:45:20;;;;;;;;;1.00;1.00;;;;;61.88;7.80;102152.69;5036046;28;46158;-74
2021/06/06 09:48:07;;;;;;;;;1.50;1.50;;;;;61.81;8.23;102152.56;5036111;28;45762;-74
2021/06/06 09:50:45;;;;;;;;;1.00;1.00;;;;;62.93;8.20;102156.44;5034510;28;45499;-74
2021/06/06 09:53:27;;;;;;;;;1.50;1.00;;;;;63.20;7.53;102142.84;5036052;28;45601;-75
2021/06/06 09:56:04;;;;;;;;;1.25;1.25;;;;;63.92;7.42;102149.91;5035209;28;47114;-75
2021/06/06 09:58:34;;;;;;;;;4.25;3.00;;;;;63.28;7.16;102147.41;5036293;28;45259;-74
2021/06/06 10:01:29;;;;;;;;;3.00;2.25;;;;;61.74;7.46;102143.94;5035825;28;45342;-74
2021/06/06 10:04:05;;;;;;;;;1.50;1.50;;;;;58.94;8.64;102132.59;5035177;28;45853;-74
2021/06/06 10:06:34;;;;;;;;;3.75;2.00;;;;;56.40;9.73;102135.53;5033176;28;47186;-74
2021/06/06 10:09:18;;;;;;;;;1.25;1.25;;;;;53.44;10.54;102111.69;5030918;28;45949;-78
2021/06/06 10:11:49;;;;;;;;;2.00;2.00;;;;;50.49;12.19;102121.53;5034940;28;45627;-74
2021/06/06 10:14:17;;;;;;;;;4.00;3.75;;;;;48.15;12.81;102120.84;5034832;28;45556;-74
2021/06/06 10:16:47;;;;;;;;;3.50;2.00;;;;;46.07;14.00;102125.97;5027270;28;45383;-74
2021/06/06 10:19:22;;;;;;;;;4.75;3.75;;;;;44.65;14.29;102118.16;5032068;28;45514;-74
2021/06/06 10:21:50;;;;;;;;;2.25;2.25;;;;;43.67;14.71;102117.09;5035670;28;45824;-75
2021/06/06 10:24:24;;;;;;;;;3.00;2.00;;;;;43.41;15.88;102116.69;5032636;28;47338;-75
2021/06/06 10:26:57;;;;;;;;;2.25;1.50;;;;;42.73;16.22;102112.13;5028255;28;46022;-75
2021/06/06 10:29:29;;;;;;;;;2.00;2.00;;;;;41.86;16.47;102115.78;5026943;28;45496;-75
2021/06/06 10:32:00;;;;;;;;;2.50;1.50;;;;;40.73;16.90;102116.75;5035344;28;45505;-75
2021/06/06 10:34:41;;;;;;;;;4.25;4.25;;;;;39.77;17.93;102118.25;5035484;28;45313;-75
2021/06/06 10:37:10;;;;;;;;;2.25;2.25;;;;;38.83;18.45;102116.41;5034832;28;46317;-75
2021/06/06 10:39:41;;;;;;;;;2.50;2.25;;;;;38.15;19.40;102116.00;5025817;28;45366;-75
2021/06/06 10:42:13;;;;;;;;;1.25;1.25;;;;;37.90;19.40;102119.44;5035810;28;45505;-74
2021/06/06 10:44:42;;;;;;;;;1.75;1.75;;;;;37.67;20.37;102119.88;5035285;28;45361;-74
2021/06/06 10:47:14;;;;;;;;;3.00;3.00;;;;;37.63;20.21;102115.84;5035649;28;45465;-74
2021/06/06 10:49:55;;;;;;;;;3.00;1.50;;;;;37.94;20.72;102112.47;5035025;28;45442;-74
2021/06/06 10:52:20;;;;;;;;;2.00;2.00;;;;;38.24;20.63;102118.31;5034940;28;45380;-75
2021/06/06 10:54:49;;;;;;;;;5.00;5.00;;;;;38.23;20.13;102110.28;5035226;28;45417;-73
2021/06/06 10:57:23;;;;;;;;;3.75;2.00;;;;;37.89;20.75;102108.69;5029172;28;47601;-75
2021/06/06 10:59:51;;;;;;;;;4.00;4.00;;;;;37.59;20.69;102109.13;5015167;28;45681;-75
2021/06/06 11:02:33;;;;;;;;;4.50;4.25;;;;;37.18;21.45;102109.28;5028773;28;45379;-75
2021/06/06 11:05:03;;;;;;;;;5.00;5.00;;;;;36.61;21.14;102099.66;5032773;28;45432;-75
2021/06/06 11:07:31;;;;;;;;;4.75;2.50;;;;;36.05;21.60;102101.44;5035474;28;47588;-74
2021/06/06 11:10:13;;;;;;;;;3.25;3.25;;;;;35.66;22.48;102104.75;5025690;28;45742;-74
2021/06/06 11:12:39;;;;;;;;;2.25;2.25;;;;;35.18;23.09;102099.03;5030929;28;45420;-75
2021/06/06 11:15:38;;;;;;;;;2.25;1.75;;;;;34.22;23.71;102091.97;5030908;28;45402;-76
2021/06/06 11:18:19;;;;;;;;;3.00;3.00;;;;;33.51;25.09;102091.50;5030283;28;46457;-73
2021/06/06 11:20:52;;;;;;;;;3.25;2.25;;;;;33.18;24.68;102093.63;5030613;28;45780;-70
2021/06/06 11:23:47;;;;;;;;;4.00;2.00;;;;;32.73;24.65;102085.22;5028407;28;45451;-73
2021/06/06 11:26:21;;;;;;;;;2.75;2.75;;;;;32.47;25.61;102085.53;5028276;28;45680;-74
2021/06/06 11:28:47;;;;;;;;;4.00;3.75;;;;;32.34;25.27;102089.81;5024819;28;46412;-74
2021/06/06 11:31:24;;;;;;;;;4.50;4.50;;;;;32.08;25.58;102076.47;5024736;28;45454;-74
2021/06/06 11:33:58;;;;;;;;;4.50;4.50;;;;;31.92;26.06;102074.66;5021673;28;45588;-74